LLO weather

Calenturitas Airport
La Loma, César Department, Colombia

Public forecast

Using degrees Celsius for public forecast. Weather courtesy of forecast.io.

METAR (pilot weather report)

Report is more than 2 hours old.

Closest report is Alfonso López Pumarejo Airport, 49.0 nm (90.8 km) NNE. Retrieved 2019/04/25 04:00 UTC (4 hours ago):

SKVP 250400Z 05009KT 9999 FEW020 SCT100 26/24 A2996

TAF (pilot weather forecast)

Closest forecast is Ernesto Cortissoz International Airport, 106.2 nm (196.7 km) NW. Retrieved 2019/04/25 06:30 UTC (2 hours ago):

TAF SKBQ 250430Z 2506/2606 01012KT 9999 SCT015 SCT090 BECMG 2509/2510 VRB02KT 4000 BR BKN010 BECMG 2513/2514 01014KT 9999 NSW SCT017 TX33/2517Z TN25/2510Z